x

Portland 12 Nm Southeast Of Portland,me (44007) Wave Buoy

10:50 - Mon 15th Sep 2014 All times are EDT. -4 hours from GMT.

  • Sig Wave height 1.3ft
  • Swell Direction
  • Peak Period 13s
  • Average Period 4s
  • Wind
    11mph, 13mph gusts
  • Sea Temp 59°f
  • Air Temp 60°f
  • Sea Pressure 1019.3mb
  • Portland 12 Nm Southeast Of Portland,me
  • Portland 12 Nm Southeast Of Portland,me

More Historic Weather Station data

Upgrade to MSW Pro to gain access to the past 30 days of data for over 8000 Wavebouys and Weather Stations around the globe.

Join Pro

Comparision Forecast

View Surf forecast
   
lun. 09/15 10:50 1.3ft 13s 4s 11 13 mph 1019.3mb 59f 60f
9:50 1.3ft 12s 4s 11 13 mph 1019.4mb 59f 60f
8:50 1.3ft 9s 4s 9 11 mph 1020mb 59f 59f
7:50 1.3ft 12s 4s 11
mph
1019.6mb 59f 59f
6:50 1ft 12s 4s 11
mph
1019.7mb 59f 58f
5:50 1.3ft 6s 5s 9 11 mph 1019.8mb 60f 58f
4:50 1ft 7s 6s 9 11 mph 1019.9mb 60f 56f
3:50 1.3ft 7s 6s 7 9 mph 1020.4mb 60f 56f
2:50 1.3ft 8s 6s 7 9 mph 1020.7mb 61f 55f
1:50 1.3ft 7s 5s 4 7 mph 1021.5mb 60f 53f
12:50 1ft 7s 5s 4
mph
1022.1mb 60f 53f
11:50 1.3ft 8s 4s 2 4 mph 1022.8mb 60f 52f
10:50 1.3ft 8s 4s 4 7 mph 1023.5mb 59f 51f
9:50 1.3ft 8s 4s 9 11 mph 1023.7mb 59f 51f
8:50 1.3ft 8s 5s 9 11 mph 1023.8mb 59f 50f
7:50 1.3ft 7s 5s 9 11 mph 1023.9mb 59f 51f
6:50 1.6ft 7s 5s 7 9 mph 1023.7mb 59f 51f
5:50 1.6ft 8s 4s 9 11 mph 1023.8mb 59f 51f
4:50 1.6ft 8s 4s 9 13 mph 1023.2mb 59f 52f
3:50 1.6ft 7s 4s 11 13 mph 1022.7mb 59f 52f
2:50 1.6ft 7s 4s 13 16 mph 1022.9mb 59f 52f
1:50 1.6ft 3s 3s 13 18 mph 1023mb 59f 52f
12:50 1.6ft 3s 3s 16 18 mph 1023.2mb 59f 53f
dim. 09/14 11:50 1.6ft 7s 3s 16 20 mph 1023.2mb 59f 53f
10:50 1.6ft 7s 3s 20 22 mph 1023.2mb 59f 53f
9:50 1.6ft 3s 3s 16 18 mph 1023.3mb 59f 54f
8:50 1.6ft 6s 4s 20 22 mph 1023mb 60f 56f
7:50 1.3ft 7s 6s 16 18 mph 1022.6mb 60f 58f
6:50 1.3ft 6s 6s 4 7 mph 1022.1mb 60f 60f
5:50 1.3ft 7s 5s 2 4 mph 1021.7mb 60f 61f
4:50 1.3ft 7s 4s 7 9 mph 1021.5mb 60f 60f
3:50 1.3ft 6s 4s 11 13 mph 1020.8mb 60f 60f
2:50 1.3ft 6s 4s 9 13 mph 1020.9mb 60f 59f
1:50 1.3ft 6s 4s 9 11 mph 1021.5mb 60f 58f
12:50 1.3ft 6s 4s 13 18 mph 1021.8mb 60f 57f
11:50 1.6ft 6s 4s 11 16 mph 1022mb 60f 56f
10:50 1.6ft 6s 4s 16 18 mph 1022.4mb 60f 54f
9:50 2ft 6s 4s 16 18 mph 1022.7mb 60f 53f
8:50 2ft 6s 4s 18 20 mph 1022.3mb 60f 53f
7:50 2ft 6s 4s 20 25 mph 1021.7mb 60f 53f
6:50 2.5ft 6s 4s 18 20 mph 1021mb 60f 54f
5:50 2ft 6s 5s 16 20 mph 1020mb 60f 55f
4:50 2.5ft 6s 5s 9 11 mph 1019.5mb 60f 55f
3:50 2.5ft 6s 5s 11 13 mph 1018.8mb 60f 56f
2:50 2.5ft 5s 4s 13 16 mph 1018.5mb 60f 56f
1:50 2.5ft 5s 4s 11 13 mph 1018.4mb 60f 56f
12:50 2ft 6s 4s 7
mph
1018.6mb 60f 57f
sam. 09/13 11:50 2.5ft 5s 4s 7 9 mph 1019.2mb 61f 60f
10:50 2.5ft 5s 4s 2 4 mph 1019.6mb 61f 60f
9:50 2.5ft 6s 4s 7 9 mph 1019.8mb 61f 60f
8:50 2.5ft 5s 4s 16 18 mph 1019.7mb 61f 60f
7:50 2.5ft 5s 4s 11 16 mph 1021mb 61f 58f
6:50 2.5ft 6s 4s 16 18 mph 1021.1mb 61f 57f
5:50 3ft 5s 4s 11 13 mph 1023.1mb 61f 56f
4:50 3ft 5s 4s 11 13 mph 1022.8mb 61f 56f
3:50 3ft 5s 4s 16 18 mph 1022.4mb 61f 56f
2:50 3ft 5s 4s 13 16 mph 1022.9mb 61f 56f
1:50 3ft 6s 4s 13 18 mph 1024.1mb 61f 56f
12:50 2.5ft 5s 4s 13 18 mph 1024.8mb 61f 55f
11:50 2.5ft 4s 4s 13 18 mph 1025.3mb 61f 55f
10:50 2ft 4s 4s 16 20 mph 1025.9mb 61f 55f
9:50 2ft 5s 4s 13 16 mph 1026.5mb 60f 54f
8:50 2.5ft 4s 4s 13 16 mph 1026.4mb 60f 53f
7:50 2.5ft 4s 4s 16 18 mph 1026.5mb 60f 54f
6:50 2.5ft 4s 4s 18 22 mph 1026mb 60f 54f
5:50 2.5ft 3s 3s 18 22 mph 1025.4mb 60f 54f
4:50 2.5ft 3s 3s 18 22 mph 1025mb 61f 54f
3:50 2ft 3s 3s 20 25 mph 1024.5mb 61f 54f
2:50 2ft 3s 3s 16 20 mph 1024.7mb 61f 54f
1:50 2ft 3s 3s 16 20 mph 1024.8mb 61f 54f
12:50 1.6ft 8s 3s 16 20 mph 1024.5mb 61f 55f
ven. 09/12 11:50 2ft 3s 3s 16 20 mph 1024.2mb 62f 55f
10:50 2ft 3s 3s 18 20 mph 1023.4mb 62f 56f
9:50 2ft 3s 3s 20 22 mph 1023mb 62f 57f
8:50 1.6ft 8s 3s 22 25 mph 1022.1mb 62f 59f
7:50 1.3ft 8s 3s 18 22 mph 1021.4mb 62f 61f
6:50 1.3ft 8s 5s 13 16 mph 1020.7mb 62f 63f
5:50 1.3ft 9s 5s 13
mph
1019.9mb 63f 64f
4:50 1.3ft 9s 5s 9 13 mph 1019.6mb 62f 64f
3:50 1.6ft 9s 5s 9 13 mph 1019.2mb 62f 63f
2:50 1.6ft 8s 5s 11 13 mph 1018.6mb 62f 62f
1:50 2ft 8s 4s 9 11 mph 1018.4mb 62f 60f
12:50 2ft 7s 4s 13 16 mph 1018.4mb 61f 60f
11:50 2ft 8s 4s 13 18 mph 1018.4mb 61f 59f
10:50 2ft 8s 4s 11 13 mph 1018.7mb 61f 58f
9:50 2ft 8s 4s 16 18 mph 1018.4mb 60f 57f
8:50 2ft 8s 4s 18 22 mph 1017.5mb 60f 56f
7:50 2ft 8s 4s 18 22 mph 1016.8mb 60f 57f
6:50 2.5ft 9s 4s 18 20 mph 1015.9mb 60f 58f
5:50 2.5ft 6s 5s 16 18 mph 1014.7mb 61f 59f
4:50 2.5ft 9s 5s 13 16 mph 1013.5mb 60f 60f